M I D A S
Marine Information and Data Acquisition System
Tripno 1069 of the Zeeleeuw from 2006-04-10 07:21:34 to 2006-04-10 13:24:46
Back to CruiseResearch ActivitiesStationsMapUnderway DataData graphs

EquipmentUnitsComment
TimeDGPSUTC
LatitudeDGPSDM.mWGS84
LongitudeDGPSDM.mWGS84
HeadingGyrodeg 
SOGDGPSknotsSpeed over ground
COGDGPSdegCourse over ground
DepthEcho soundermeters200 kHz
Missing or incorrect values are displayed as -999
Navigation data collected by the RV Zeeleeuw from 2006-04-10 07:21:20 to 2006-04-10 13:38:36
Time Latitude Longitude Heading SOG COG Depth
2006-04-10 07:22:25 51°13.614 2°56.039 115.2 3.5 292 -999
2006-04-10 07:23:25 51°13.64 2°55.93 119.7 4.8 294 -999
2006-04-10 07:24:25 51°13.678 2°55.831 131.8 4.7 306 -999
2006-04-10 07:25:25 51°13.716 2°55.743 124.8 3.1 300 -999
2006-04-10 07:26:25 51°13.72 2°55.747 85.1 1.1 80 -999
2006-04-10 07:27:25 51°13.713 2°55.721 81.4 1.8 257 -999
2006-04-10 07:28:25 51°13.724 2°55.743 35.9 0.3 95 -999
2006-04-10 07:29:25 51°13.706 2°55.731 25.7 0.2 214 -999
2006-04-10 07:30:25 51°13.751 2°55.698 330.2 4.9 325 -999
2006-04-10 07:31:25 51°13.837 2°55.623 340 6.3 335 10.2
2006-04-10 07:32:24 51°13.927 2°55.557 341.3 5.8 335 9.8
2006-04-10 07:33:25 51°14.031 2°55.481 341.6 8.2 336 9.9
2006-04-10 07:34:25 51°14.168 2°55.378 338.9 9.4 332 9.8
2006-04-10 07:35:25 51°14.288 2°55.212 316.4 10.1 311 -999
2006-04-10 07:36:24 51°14.398 2°55.012 322.7 10.4 313 10.2
2006-04-10 07:37:24 51°14.537 2°54.83 336 11.5 325 9.4
2006-04-10 07:38:25 51°14.706 2°54.641 335.7 12.3 325 9.5
2006-04-10 07:39:24 51°14.872 2°54.46 336.4 12.3 326 9.3
2006-04-10 07:40:25 51°15.042 2°54.27 336.1 12.2 325 8.5
2006-04-10 07:41:24 51°15.208 2°54.09 337.2 12.3 328 9.1
2006-04-10 07:42:25 51°15.384 2°53.909 338 12.4 328 9.8
2006-04-10 07:43:24 51°15.547 2°53.723 338.4 12.1 326 10.3
2006-04-10 07:44:24 51°15.718 2°53.552 339.8 12.1 329 10.8
2006-04-10 07:45:25 51°15.897 2°53.385 342 12.3 331 11.3
2006-04-10 07:46:24 51°16.072 2°53.231 342.1 12.1 331 11.5
2006-04-10 07:47:25 51°16.249 2°53.071 341.5 11.8 330 11.9
2006-04-10 07:48:25 51°16.425 2°52.922 341.8 12.2 332 12.1
2006-04-10 07:49:25 51°16.605 2°52.785 345.1 12.1 336 11.7
2006-04-10 07:50:24 51°16.788 2°52.674 348.1 11.9 341 10
2006-04-10 07:51:24 51°16.979 2°52.609 358.4 11.9 350 10.3
2006-04-10 07:52:25 51°17.174 2°52.556 358.7 11.5 351 9.8
2006-04-10 07:53:25 51°17.365 2°52.514 359.9 11.7 352 10.4
2006-04-10 07:54:25 51°17.557 2°52.478 2.5 11.6 355 10.7
2006-04-10 07:55:24 51°17.75 2°52.466 7.1 11.7 359 10.5
2006-04-10 07:56:25 51°17.946 2°52.475 10.2 11.7 4 10.9
2006-04-10 07:57:24 51°18.119 2°52.589 39.1 11.6 38 11
2006-04-10 07:58:25 51°18.258 2°52.812 52.8 11.8 52 10.9
2006-04-10 07:59:25 51°18.342 2°53.094 71.1 11.7 70 11.2
2006-04-10 08:00:24 51°18.411 2°53.382 68.8 11.7 67 11.6
2006-04-10 08:01:24 51°18.493 2°53.669 67.6 11.9 67 11.3
2006-04-10 08:02:24 51°18.575 2°53.957 66.7 12 66 11.1
2006-04-10 08:03:25 51°18.659 2°54.244 66.7 11.9 67 11.3
2006-04-10 08:04:24 51°18.742 2°54.523 66 11.9 63 11.4
2006-04-10 08:05:24 51°18.822 2°54.808 69.8 11.9 68 11.2
2006-04-10 08:06:24 51°18.898 2°55.095 68.9 11.8 65 11.3
2006-04-10 08:07:25 51°18.974 2°55.388 69.4 11.7 65 10.9
2006-04-10 08:08:24 51°19.049 2°55.667 68.1 11.7 67 10.9
2006-04-10 08:09:24 51°19.128 2°55.949 68.2 11.6 67 10.9
2006-04-10 08:10:25 51°19.206 2°56.235 68.7 11.6 67 10.8
2006-04-10 08:11:24 51°19.281 2°56.514 68.2 11.7 64 11
2006-04-10 08:12:25 51°19.358 2°56.803 69.1 11.8 68 10.6
2006-04-10 08:13:24 51°19.434 2°57.084 69.5 11.8 67 10.4
2006-04-10 08:14:24 51°19.51 2°57.37 68.4 11.7 66 10.5
2006-04-10 08:15:25 51°19.591 2°57.662 67.9 11.6 66 10.5
2006-04-10 08:16:25 51°19.666 2°57.951 68.9 11.7 66 10.3
2006-04-10 08:17:24 51°19.741 2°58.232 68.9 11.7 68 10.1
2006-04-10 08:18:25 51°19.82 2°58.521 68.2 11.7 64 10.2
2006-04-10 08:19:25 51°19.894 2°58.809 68.3 11.9 67 10.1
2006-04-10 08:20:24 51°19.968 2°59.093 68 11.8 69 10.1
2006-04-10 08:21:24 51°20.044 2°59.383 68.7 11.8 69 10.2
2006-04-10 08:22:24 51°20.122 2°59.674 68.4 12 68 10.3
2006-04-10 08:23:24 51°20.199 2°59.969 68.9 12 69 10.3
2006-04-10 08:24:25 51°20.275 3°0.27 69.2 12.2 68 10.3
2006-04-10 08:25:25 51°20.352 3°0.569 67.8 12.1 68 10.1
2006-04-10 08:26:25 51°20.429 3°0.866 68.6 12.2 67 10.3
2006-04-10 08:27:24 51°20.507 3°1.16 68.1 12.1 66 10.4
2006-04-10 08:28:25 51°20.586 3°1.465 68.9 12.1 70 10.3
2006-04-10 08:29:24 51°20.666 3°1.76 67.5 12.3 67 10.4
2006-04-10 08:30:24 51°20.743 3°2.061 69.5 12.3 66 10.3
2006-04-10 08:31:24 51°20.822 3°2.358 68.2 12.2 68 10.7
2006-04-10 08:32:25 51°20.904 3°2.665 69 12.3 67 10.4
2006-04-10 08:33:24 51°20.982 3°2.961 68.3 12.4 67 10.6
2006-04-10 08:34:24 51°21.064 3°3.262 68 12.3 67 10.7
2006-04-10 08:35:24 51°21.146 3°3.566 68 12.5 67 11.2
2006-04-10 08:36:25 51°21.232 3°3.875 67.8 12.5 67 10.9
2006-04-10 08:37:25 51°21.314 3°4.178 68.2 12.3 67 10.9
2006-04-10 08:38:24 51°21.385 3°4.478 72.3 12.3 71 10.9
2006-04-10 08:39:24 51°21.448 3°4.791 73.5 12.4 71 11.2
2006-04-10 08:40:24 51°21.511 3°5.107 73.6 12.4 72 11.3
2006-04-10 08:41:24 51°21.576 3°5.422 73.3 12.5 73 11.5
2006-04-10 08:42:25 51°21.642 3°5.739 72.5 12.2 74 11.4
2006-04-10 08:43:24 51°21.705 3°6.045 73.6 12.2 71 11.6
2006-04-10 08:44:24 51°21.762 3°6.362 76.7 12.6 77 11.6
2006-04-10 08:45:24 51°21.815 3°6.683 76.5 12.5 75 11.9
2006-04-10 08:46:25 51°21.86 3°7.014 79 12.6 78 11.8
2006-04-10 08:47:24 51°21.903 3°7.333 79.5 12.6 79 12.1
2006-04-10 08:48:25 51°21.94 3°7.667 81 12.4 83 12.2
2006-04-10 08:49:25 51°21.973 3°7.997 81.2 12.7 82 12.3
2006-04-10 08:50:24 51°22.007 3°8.322 81.2 12.6 81 12.3
2006-04-10 08:51:25 51°22.042 3°8.658 82.1 12.5 81 12.3
2006-04-10 08:52:25 51°22.077 3°8.989 80.4 12.7 77 12.7
2006-04-10 08:53:24 51°22.113 3°9.318 82 12.8 78 13.2
2006-04-10 08:54:24 51°22.152 3°9.654 82 12.8 79 13.8
2006-04-10 08:55:25 51°22.192 3°9.996 80.6 12.9 79 14.3
2006-04-10 08:56:24 51°22.23 3°10.328 79.6 12.8 79 15
2006-04-10 08:57:25 51°22.281 3°10.673 79.2 13.2 77 17.5
2006-04-10 08:58:25 51°22.327 3°11.017 80 13.5 80 16.5
2006-04-10 08:59:24 51°22.373 3°11.358 81.3 13.4 77 16.2
2006-04-10 09:00:25 51°22.418 3°11.713 80.8 13.6 79 16.1
2006-04-10 09:01:25 51°22.463 3°12.064 79.7 13.5 79 15.4
2006-04-10 09:02:25 51°22.506 3°12.416 81 13.7 80 14.5
2006-04-10 09:03:24 51°22.55 3°12.762 80.5 13.5 79 13.9
2006-04-10 09:04:25 51°22.591 3°13.075 75.5 8.8 76 13.2
2006-04-10 09:05:25 51°22.614 3°13.206 62.7 2.4 80 13.2
2006-04-10 09:06:25 51°22.601 3°13.225 84.1 1 146 -999
2006-04-10 09:07:25 51°22.587 3°13.243 102 1.1 142 13.1
2006-04-10 09:08:25 51°22.573 3°13.266 119.6 1.2 130 13.1
2006-04-10 09:09:25 51°22.558 3°13.289 126.8 1.3 130 13.2
2006-04-10 09:10:25 51°22.544 3°13.314 124.7 1.2 125 13.1
2006-04-10 09:11:25 51°22.53 3°13.341 121.6 1.3 132 13.1
2006-04-10 09:12:25 51°22.514 3°13.377 117.7 2.8 116 13
2006-04-10 09:13:25 51°22.527 3°13.498 56.6 6.7 56 12.8
2006-04-10 09:14:25 51°22.622 3°13.49 318.6 6.6 311 12.6
2006-04-10 09:15:25 51°22.678 3°13.265 296.5 11 292 12.9
2006-04-10 09:16:25 51°22.739 3°12.974 292.6 11.6 286 13.3
2006-04-10 09:17:25 51°22.797 3°12.677 292.9 11.8 288 13.6
2006-04-10 09:18:25 51°22.854 3°12.376 291.9 11.8 287 13.7
2006-04-10 09:19:24 51°22.91 3°12.078 291.3 11.9 286 13.4
2006-04-10 09:20:25 51°22.967 3°11.767 292.4 12 286 13.3
2006-04-10 09:21:25 51°23.027 3°11.462 294.2 12.1 289 13.6
2006-04-10 09:22:25 51°23.092 3°11.158 294.5 12.1 288 13.5
2006-04-10 09:23:25 51°23.154 3°10.856 294.2 11.9 288 13.5
2006-04-10 09:24:25 51°23.217 3°10.566 293.7 11.5 288 13.9
2006-04-10 09:25:25 51°23.285 3°10.274 296.4 11.8 292 14
2006-04-10 09:26:24 51°23.355 3°9.992 296.3 11.5 292 14.3
2006-04-10 09:27:25 51°23.427 3°9.7 296.4 11.5 292 14.8
2006-04-10 09:28:24 51°23.495 3°9.421 296.5 11.4 292 14.9
2006-04-10 09:29:25 51°23.568 3°9.131 296.4 11.5 292 15.9
2006-04-10 09:30:25 51°23.638 3°8.848 295.8 11.5 291 17.6
2006-04-10 09:31:24 51°23.701 3°8.564 294.8 11.5 289 19.4
2006-04-10 09:32:25 51°23.759 3°8.269 293.2 11.6 287 19
2006-04-10 09:33:25 51°23.813 3°7.975 293 11.6 286 19.3
2006-04-10 09:34:25 51°23.855 3°7.677 289 11.3 282 19
2006-04-10 09:35:25 51°23.894 3°7.377 288.4 11.5 282 19.3
2006-04-10 09:36:25 51°23.936 3°7.078 289.8 11.6 282 19.9
2006-04-10 09:37:25 51°23.978 3°6.777 288.9 11.6 283 19.7
2006-04-10 09:38:25 51°24.021 3°6.474 289.9 11.7 284 20
2006-04-10 09:39:25 51°24.066 3°6.174 292.2 11.7 286 19.9
2006-04-10 09:40:24 51°24.12 3°5.883 293.4 11.6 289 20
2006-04-10 09:41:25 51°24.182 3°5.586 295.2 11.7 288 19.6
2006-04-10 09:42:24 51°24.244 3°5.298 295.4 11.5 288 19.4
2006-04-10 09:43:25 51°24.307 3°4.999 295.2 11.5 290 19.3
2006-04-10 09:44:25 51°24.369 3°4.704 294.2 11.8 290 19.6
2006-04-10 09:45:25 51°24.432 3°4.409 294.2 11.6 290 19.4
2006-04-10 09:46:25 51°24.497 3°4.115 294.2 11.5 289 19.3
2006-04-10 09:47:25 51°24.564 3°3.825 294.3 11.6 291 19.5
2006-04-10 09:48:25 51°24.633 3°3.534 294.7 11.9 289 19.5
2006-04-10 09:49:24 51°24.684 3°3.236 285.6 11.7 280 19.9
2006-04-10 09:50:25 51°24.722 3°2.916 285.5 11.9 283 20.1
2006-04-10 09:51:24 51°24.737 3°2.606 275.2 12.1 272 19.9
2006-04-10 09:52:25 51°24.744 3°2.283 277.9 12.1 275 19.8
2006-04-10 09:53:24 51°24.753 3°1.968 278.2 11.9 274 20
2006-04-10 09:54:24 51°24.766 3°1.651 277.5 12.1 272 20.6
2006-04-10 09:55:25 51°24.78 3°1.318 278.4 12.6 273 20.5
2006-04-10 09:56:25 51°24.795 3°0.986 277.8 12.4 272 20.2
2006-04-10 09:57:25 51°24.808 3°0.653 277.6 12.4 274 20.1
2006-04-10 09:58:25 51°24.822 3°0.32 278.4 12.6 275 19.9
2006-04-10 09:59:25 51°24.835 2°59.982 278 12.8 272 20.4
2006-04-10 10:00:25 51°24.845 2°59.637 278.1 12.9 272 20.4
2006-04-10 10:01:25 51°24.851 2°59.295 277.7 12.7 273 20.7
2006-04-10 10:02:25 51°24.86 2°58.955 276.1 12.7 271 20.5
2006-04-10 10:03:25 51°24.875 2°58.62 277.6 12.5 273 21
2006-04-10 10:04:25 51°24.894 2°58.286 278.8 12.7 275 21.4
2006-04-10 10:05:24 51°24.922 2°57.955 280.4 12.8 278 22
2006-04-10 10:06:25 51°24.948 2°57.616 278.9 12.6 275 23.1
2006-04-10 10:07:25 51°24.972 2°57.283 280.8 12.6 278 24.1
2006-04-10 10:08:25 51°24.998 2°56.949 278.7 12.7 280 26
2006-04-10 10:09:25 51°25.031 2°56.612 281.7 12.7 279 26.3
2006-04-10 10:10:25 51°25.066 2°56.272 281.6 13.1 278 26.6
2006-04-10 10:11:25 51°25.099 2°55.933 280.9 12.7 278 24.5
2006-04-10 10:12:25 51°25.126 2°55.598 280.3 12.6 275 21.5
2006-04-10 10:13:25 51°25.156 2°55.266 280.9 12.6 279 20.4
2006-04-10 10:14:25 51°25.184 2°54.933 280.8 12.5 275 20.5
2006-04-10 10:15:25 51°25.213 2°54.603 280.1 12.5 276 21.6
2006-04-10 10:16:25 51°25.246 2°54.268 280.8 12.9 277 23
2006-04-10 10:17:25 51°25.278 2°53.929 281.6 12.9 281 22.3
2006-04-10 10:18:25 51°25.309 2°53.591 280.3 12.9 282 22.4
2006-04-10 10:19:25 51°25.338 2°53.255 280 12.9 277 24.8
2006-04-10 10:20:25 51°25.37 2°52.916 280.6 12.8 280 25.4
2006-04-10 10:21:25 51°25.403 2°52.575 279.8 12.9 278 25.5
2006-04-10 10:22:25 51°25.436 2°52.237 278.2 12.9 275 27.7
2006-04-10 10:23:24 51°25.479 2°51.902 285.7 13.1 283 29.7
2006-04-10 10:24:25 51°25.533 2°51.559 284.9 12.9 284 25.5
2006-04-10 10:25:25 51°25.584 2°51.227 284.4 12.9 284 25.2
2006-04-10 10:26:25 51°25.632 2°50.893 283.7 13 284 25.6
2006-04-10 10:27:25 51°25.682 2°50.56 284.6 12.8 282 25.2
2006-04-10 10:28:25 51°25.732 2°50.224 284.5 12.9 285 25
2006-04-10 10:29:25 51°25.784 2°49.888 285.1 12.9 284 24.9
2006-04-10 10:30:25 51°25.833 2°49.55 283.9 13.1 282 25.2
2006-04-10 10:31:25 51°25.882 2°49.211 283.7 13.1 284 25.4
2006-04-10 10:32:25 51°25.935 2°48.874 284.9 13 284 25.6
2006-04-10 10:33:25 51°25.973 2°48.58 280.9 8.4 282 26
2006-04-10 10:34:25 51°26 2°48.45 293.7 2.3 299 26.1
2006-04-10 10:35:25 51°26.003 2°48.456 292.2 0.3 163 -999
2006-04-10 10:36:25 51°26.006 2°48.46 280.6 0.4 25 25.9
2006-04-10 10:37:25 51°26.008 2°48.464 273.1 0.3 27 25.3
2006-04-10 10:38:25 51°26.01 2°48.465 274.6 0.4 16 25.7
2006-04-10 10:39:25 51°26.014 2°48.467 280.4 0.2 151 25.7
2006-04-10 10:40:25 51°26.019 2°48.47 285.3 0.3 157 25.6
2006-04-10 10:41:25 51°26.014 2°48.429 240.8 2.8 238 25.6
2006-04-10 10:42:25 51°25.934 2°48.362 214.8 9.2 212 25.8
2006-04-10 10:43:25 51°25.783 2°48.163 223.2 12.4 224 25.4
2006-04-10 10:44:25 51°25.625 2°47.958 219.8 12.7 218 25.5
2006-04-10 10:45:25 51°25.462 2°47.759 219.3 12.3 219 28
2006-04-10 10:46:25 51°25.299 2°47.55 223.5 12.3 218 28.5
2006-04-10 10:47:25 51°25.147 2°47.329 227.3 11.8 220 27.3
2006-04-10 10:48:25 51°24.991 2°47.12 222.5 12.2 221 28.5
2006-04-10 10:49:25 51°24.838 2°46.901 225.6 12.2 227 29.9
2006-04-10 10:50:25 51°24.68 2°46.693 225.1 11.7 217 31.6
2006-04-10 10:51:25 51°24.524 2°46.485 223 12.1 215 30.4
2006-04-10 10:52:25 51°24.377 2°46.254 230 12.4 229 30.4
2006-04-10 10:53:25 51°24.233 2°46.023 229 12.5 218 28.1
2006-04-10 10:54:25 51°24.091 2°45.798 229.8 11.9 229 29.1
2006-04-10 10:55:25 51°23.945 2°45.569 226.6 12.4 228 29.2
2006-04-10 10:56:25 51°23.791 2°45.359 222.2 12.2 221 29.3
2006-04-10 10:57:25 51°23.639 2°45.146 227.9 11.7 221 29
2006-04-10 10:58:25 51°23.48 2°44.945 223.9 12.1 216 29.3
2006-04-10 10:59:25 51°23.318 2°44.742 222.4 12.7 217 29
2006-04-10 11:00:25 51°23.157 2°44.546 223.1 12 217 29
2006-04-10 11:01:25 51°22.994 2°44.346 221.3 13 217 29.3
2006-04-10 11:02:25 51°22.831 2°44.152 224 12.4 212 26.5
2006-04-10 11:03:25 51°22.669 2°43.955 223.9 12.6 221 26.2
2006-04-10 11:04:25 51°22.505 2°43.76 224 12.7 218 27.9
2006-04-10 11:05:25 51°22.343 2°43.553 222.6 12.7 222 27.7
2006-04-10 11:06:25 51°22.174 2°43.361 222.8 12.4 217 27.7
2006-04-10 11:07:25 51°22.007 2°43.162 225.4 12.5 222 26.2
2006-04-10 11:08:25 51°21.84 2°42.966 219.1 12.7 215 26.9
2006-04-10 11:09:25 51°21.673 2°42.779 221.3 12.1 219 23.9
2006-04-10 11:10:25 51°21.514 2°42.572 224.5 12.7 218 25.9
2006-04-10 11:11:25 51°21.351 2°42.378 223.4 11.5 217 26.2
2006-04-10 11:12:25 51°21.188 2°42.178 224.6 12.3 215 26
2006-04-10 11:13:25 51°21.019 2°41.993 220.9 12.2 215 24.7
2006-04-10 11:14:25 51°20.859 2°41.792 225.1 12.3 222 25.8
2006-04-10 11:15:25 51°20.703 2°41.581 223.6 12.1 219 22.8
2006-04-10 11:16:25 51°20.543 2°41.372 228.1 12.2 221 24.2
2006-04-10 11:17:25 51°20.388 2°41.168 222.5 11.9 217 25.7
2006-04-10 11:18:25 51°20.226 2°40.964 224.7 12.4 218 24.5
2006-04-10 11:19:25 51°20.073 2°40.753 224.3 12.1 224 25.5
2006-04-10 11:20:25 51°19.915 2°40.55 222 11.9 216 28.5
2006-04-10 11:21:25 51°19.758 2°40.35 223 12.2 218 29.7
2006-04-10 11:22:25 51°19.605 2°40.147 223.6 11.9 216 29.6
2006-04-10 11:23:25 51°19.452 2°39.928 226.4 12.4 222 29.1
2006-04-10 11:24:25 51°19.299 2°39.709 227.9 12.4 223 28.8
2006-04-10 11:25:25 51°19.142 2°39.499 222.8 12.6 217 28.5
2006-04-10 11:26:25 51°18.982 2°39.293 221.9 12.5 223 28.2
2006-04-10 11:27:25 51°18.823 2°39.09 222.3 12.2 218 28.2
2006-04-10 11:28:25 51°18.665 2°38.88 221.5 12.4 216 28.6
2006-04-10 11:29:25 51°18.505 2°38.689 217.9 11.9 219 29.2
2006-04-10 11:30:25 51°18.345 2°38.501 219.5 12.1 218 29.2
2006-04-10 11:31:25 51°18.177 2°38.323 216.5 12.1 214 28.8
2006-04-10 11:32:25 51°18.005 2°38.147 215.2 12.4 209 28.7
2006-04-10 11:33:25 51°17.834 2°37.97 215.5 12.2 214 29
2006-04-10 11:34:25 51°17.661 2°37.803 214.2 12.4 213 29.2
2006-04-10 11:35:25 51°17.487 2°37.626 213.4 12.4 206 29
2006-04-10 11:36:25 51°17.316 2°37.453 215.5 12 212 29
2006-04-10 11:37:25 51°17.146 2°37.278 216.3 12.2 211 28.9
2006-04-10 11:38:25 51°16.975 2°37.105 215.7 12 211 30.4
2006-04-10 11:39:25 51°16.798 2°36.945 205.6 12.3 203 28.8
2006-04-10 11:40:25 51°16.665 2°36.875 203.2 5.4 202 28.5
2006-04-10 11:41:25 51°16.614 2°36.837 224.4 2.6 214 28.2
2006-04-10 11:42:25 51°16.598 2°36.81 240.1 1.1 248 28.3
2006-04-10 11:43:25 51°16.596 2°36.791 258 0.6 306 28.5
2006-04-10 11:44:25 51°16.601 2°36.783 272 0.5 338 28.4
2006-04-10 11:45:25 51°16.608 2°36.783 283.8 0.2 354 28.4
2006-04-10 11:46:25 51°16.617 2°36.789 290.1 0.4 30 28.4
2006-04-10 11:47:25 51°16.622 2°36.802 290.7 1 42 28.3
2006-04-10 11:48:25 51°16.626 2°36.818 286.4 0.8 62 28.5
2006-04-10 11:49:25 51°16.628 2°36.833 284.7 0.2 45 28.4
2006-04-10 11:50:25 51°16.61 2°36.764 227.9 4.7 226 28.4
2006-04-10 11:51:25 51°16.496 2°36.822 156.3 9.6 149 28.4
2006-04-10 11:52:25 51°16.315 2°36.946 168.1 12.9 162 28.2
2006-04-10 11:53:25 51°16.122 2°37.097 158.5 12.9 152 23.3
2006-04-10 11:54:25 51°15.929 2°37.253 161.5 13.3 156 14
2006-04-10 11:55:25 51°15.734 2°37.411 158.5 13.2 151 10.8
2006-04-10 11:56:25 51°15.541 2°37.567 159.8 13.6 151 13
2006-04-10 11:57:25 51°15.345 2°37.727 160.6 13.4 150 12.2
2006-04-10 11:58:25 51°15.148 2°37.884 158.2 13.3 152 12.9
2006-04-10 11:59:25 51°14.951 2°38.043 161.7 13.4 151 15.1
2006-04-10 12:00:25 51°14.759 2°38.217 157.2 12.6 150 17.6
2006-04-10 12:01:25 51°14.566 2°38.382 159.2 12.9 152 18.6
2006-04-10 12:02:25 51°14.376 2°38.557 157.5 13.6 150 20.1
2006-04-10 12:03:25 51°14.186 2°38.723 162.9 13.2 152 16.1
2006-04-10 12:04:25 51°13.983 2°38.84 169.8 13.6 162 14
2006-04-10 12:05:25 51°13.768 2°38.841 201.6 12.4 195 16
2006-04-10 12:06:25 51°13.57 2°38.71 208.7 12.6 203 16.6
2006-04-10 12:07:25 51°13.372 2°38.576 209 12.1 201 16.3
2006-04-10 12:08:25 51°13.171 2°38.461 202.8 12.7 200 16.2
2006-04-10 12:09:25 51°12.969 2°38.351 206.3 13.1 198 15.6
2006-04-10 12:10:25 51°12.772 2°38.222 210.4 12.8 203 15
2006-04-10 12:11:25 51°12.578 2°38.09 208.6 12.3 202 15.1
2006-04-10 12:12:25 51°12.383 2°37.958 208.6 12.8 205 15
2006-04-10 12:13:25 51°12.189 2°37.823 210.7 12.7 203 14.8
2006-04-10 12:14:25 51°11.992 2°37.692 209.2 12.5 201 15.5
2006-04-10 12:15:25 51°11.794 2°37.569 209.4 12.9 205 15.7
2006-04-10 12:16:25 51°11.598 2°37.444 208 12.6 201 15.8
2006-04-10 12:17:25 51°11.403 2°37.321 209 12.5 203 15.4
2006-04-10 12:18:25 51°11.208 2°37.186 207.1 12.5 201 14.7
2006-04-10 12:19:25 51°11.013 2°37.059 209.5 12.5 200 13.9
2006-04-10 12:20:25 51°10.817 2°36.933 209.8 12.4 201 12.3
2006-04-10 12:21:25 51°10.619 2°36.818 200.1 12.8 191 11.2
2006-04-10 12:22:25 51°10.423 2°36.909 151.8 13 140 14
2006-04-10 12:23:25 51°10.337 2°37.222 101.3 13.7 92 19.4
2006-04-10 12:24:24 51°10.381 2°37.578 81.2 14.1 78 19.5
2006-04-10 12:25:25 51°10.428 2°37.949 86.3 14 82 19.6
2006-04-10 12:26:25 51°10.466 2°38.315 87 13.8 80 19.2
2006-04-10 12:27:25 51°10.502 2°38.679 86.1 13.8 82 18.4
2006-04-10 12:28:25 51°10.543 2°39.042 84.3 13.9 80 17.6
2006-04-10 12:29:25 51°10.596 2°39.399 80.4 13.9 74 16.8
2006-04-10 12:30:25 51°10.66 2°39.755 79.2 13.9 74 16.1
2006-04-10 12:31:25 51°10.725 2°40.11 79 14.1 72 15.8
2006-04-10 12:32:25 51°10.789 2°40.466 79 14.1 75 15.1
2006-04-10 12:33:25 51°10.851 2°40.823 79.9 14 75 14.5
2006-04-10 12:34:25 51°10.918 2°41.178 78.6 14 72 14.2
2006-04-10 12:35:25 51°10.986 2°41.531 78.3 13.8 73 13.9
2006-04-10 12:36:25 51°11.035 2°41.799 76.6 8.4 73 14.1
2006-04-10 12:37:25 51°11.064 2°41.967 77.8 5.5 77 14
2006-04-10 12:38:25 51°11.078 2°42.063 76.2 2.4 81 14.3
2006-04-10 12:39:25 51°11.074 2°42.08 87 0.8 156 -999
2006-04-10 12:40:24 51°11.066 2°42.091 109.7 0.8 140 14.2
2006-04-10 12:41:25 51°11.059 2°42.107 117.8 0.9 153 14.2
2006-04-10 12:42:25 51°11.053 2°42.125 115.7 0.8 107 14.3
2006-04-10 12:43:25 51°11.046 2°42.145 109.5 0.9 114 14.2
2006-04-10 12:44:25 51°11.038 2°42.181 101.2 2.6 99 14.4
2006-04-10 12:45:25 51°11.043 2°42.36 81.8 9.1 79 14.4
2006-04-10 12:46:25 51°11.09 2°42.643 76.2 12.3 73 14.2
2006-04-10 12:47:24 51°11.15 2°42.978 77 13.5 74 14
2006-04-10 12:48:25 51°11.209 2°43.333 78.2 13.5 78 14
2006-04-10 12:49:25 51°11.262 2°43.683 79.5 13.5 75 14.2
2006-04-10 12:50:25 51°11.33 2°44.026 74.2 13.6 70 14.2
2006-04-10 12:51:25 51°11.401 2°44.369 74.6 13.7 72 14.1
2006-04-10 12:52:25 51°11.472 2°44.714 74.2 13.6 75 14.2
2006-04-10 12:53:25 51°11.541 2°45.057 74.9 13.7 72 14.1
2006-04-10 12:54:24 51°11.609 2°45.398 75 13.7 74 14.3
2006-04-10 12:55:25 51°11.677 2°45.75 75.3 13.9 75 14.1
2006-04-10 12:56:25 51°11.747 2°46.095 74.9 13.8 71 14.3
2006-04-10 12:57:25 51°11.82 2°46.437 72.5 13.6 69 14.2
2006-04-10 12:58:25 51°11.905 2°46.772 71.1 13.6 69 14.1
2006-04-10 12:59:25 51°11.988 2°47.111 70.8 13.7 70 13.9
2006-04-10 13:00:25 51°12.073 2°47.446 68.9 13.7 65 13.8
2006-04-10 13:01:25 51°12.173 2°47.766 63.5 13.5 61 13.8
2006-04-10 13:02:25 51°12.28 2°48.077 63.8 13.4 63 13.6
2006-04-10 13:03:25 51°12.386 2°48.391 64.3 13.6 62 13.4
2006-04-10 13:04:25 51°12.486 2°48.711 70.1 13.6 70 13.5
2006-04-10 13:05:25 51°12.574 2°49.041 68.3 13.4 67 13.1
2006-04-10 13:06:25 51°12.663 2°49.368 69.2 13.4 69 12.7
2006-04-10 13:07:25 51°12.748 2°49.696 69 13.5 66 12.6
2006-04-10 13:08:25 51°12.846 2°50.017 63.9 13.5 61 12.3
2006-04-10 13:09:25 51°12.964 2°50.322 61 13.4 60 12.4
2006-04-10 13:10:25 51°13.079 2°50.625 61.5 13.5 58 12.1
2006-04-10 13:11:25 51°13.194 2°50.93 60.8 13.4 58 12.2
2006-04-10 13:12:25 51°13.309 2°51.236 60.9 13.4 59 12
2006-04-10 13:13:25 51°13.426 2°51.54 61.4 13.5 58 11.9
2006-04-10 13:14:25 51°13.542 2°51.847 61.5 13.5 58 11.7
2006-04-10 13:15:25 51°13.66 2°52.153 60.9 13.5 59 11.7
2006-04-10 13:16:25 51°13.777 2°52.46 60.9 13.7 58 11.7
2006-04-10 13:17:25 51°13.896 2°52.766 61.4 13.5 58 11.5
2006-04-10 13:18:25 51°14.014 2°53.071 61.3 13.5 60 11.3
2006-04-10 13:19:25 51°14.13 2°53.377 61.7 13.5 58 10.8
2006-04-10 13:20:25 51°14.225 2°53.701 70.2 13.4 67 10.7
2006-04-10 13:21:25 51°14.305 2°54.032 73.3 13.3 71 10.6
2006-04-10 13:22:25 51°14.354 2°54.38 81.6 13.5 78 10.7
2006-04-10 13:23:25 51°14.383 2°54.73 84.3 13.3 79 11.2
2006-04-10 13:24:25 51°14.356 2°55.062 115.5 12.6 114 11.1
2006-04-10 13:25:25 51°14.255 2°55.27 132.6 8.5 133 11.1
2006-04-10 13:26:25 51°14.155 2°55.384 155.7 7 154 11.1
2006-04-10 13:27:25 51°14.057 2°55.46 157 5.9 155 11.1
2006-04-10 13:28:24 51°13.977 2°55.517 157.7 5.1 156 11.2
2006-04-10 13:29:24 51°13.902 2°55.574 156.6 4.9 154 11.1
2006-04-10 13:30:25 51°13.83 2°55.636 154.5 4.7 151 11.2
2006-04-10 13:31:25 51°13.766 2°55.702 143 4.5 140 10.9
2006-04-10 13:32:24 51°13.719 2°55.791 130.5 4.4 127 11.1
2006-04-10 13:33:25 51°13.678 2°55.879 130.1 3.8 127 -999
2006-04-10 13:34:24 51°13.644 2°55.952 130.5 3.3 126 10.2
2006-04-10 13:35:24 51°13.618 2°56.02 116.7 2.7 114 10.2
2006-04-10 13:36:24 51°13.607 2°56.075 105.3 1.3 105 8.8
2006-04-10 13:37:25 51°13.604 2°56.091 107.1 0.4 124 6.8
2006-04-10 13:38:24 51°13.6 2°56.097 107.4 0.2 138 6.5